createdAt,value
2023-05-05T00:02:07.575Z,36.07
2023-05-05T00:04:34.646Z,36.05
2023-05-05T00:07:02.185Z,36.06
2023-05-05T00:09:29.715Z,36.22
2023-05-05T00:11:56.469Z,35.84
2023-05-05T00:14:23.528Z,36.11
2023-05-05T00:16:50.299Z,35.93
2023-05-05T00:19:17.328Z,36.30
2023-05-05T00:21:44.061Z,36.05
2023-05-05T00:24:11.479Z,36.11
2023-05-05T00:26:38.201Z,36.15
2023-05-05T00:29:05.241Z,35.98
2023-05-05T00:31:31.985Z,36.19
2023-05-05T00:33:58.994Z,36.18
2023-05-05T00:36:25.809Z,36.19
2023-05-05T00:38:52.852Z,36.33
2023-05-05T00:41:19.547Z,36.24
2023-05-05T00:43:46.561Z,36.25
2023-05-05T00:46:19.378Z,36.39
2023-05-05T00:48:46.484Z,36.34
2023-05-05T00:51:13.861Z,36.19
2023-05-05T00:53:43.071Z,36.43
2023-05-05T00:56:09.774Z,36.43
2023-05-05T00:58:36.937Z,36.36
2023-05-05T01:01:03.694Z,36.48
2023-05-05T01:03:30.815Z,36.29
2023-05-05T01:06:20.971Z,36.25
2023-05-05T01:09:02.067Z,36.38
2023-05-05T01:11:46.553Z,36.32
2023-05-05T01:14:18.378Z,36.21
2023-05-05T01:17:01.345Z,36.04
2023-05-05T01:19:49.914Z,36.38
2023-05-05T01:22:18.981Z,36.26
2023-05-05T01:25:12.745Z,36.53
2023-05-05T01:27:50.243Z,36.43
2023-05-05T01:30:23.849Z,36.68
2023-05-05T01:32:51.401Z,36.37
2023-05-05T01:35:20.337Z,36.32
2023-05-05T01:38:03.015Z,36.49
2023-05-05T01:40:31.955Z,36.46
2023-05-05T01:42:58.645Z,36.43
2023-05-05T01:45:27.194Z,36.48
2023-05-05T01:47:55.751Z,36.57
2023-05-05T01:50:22.824Z,36.52
2023-05-05T01:52:49.520Z,36.47
2023-05-05T01:55:16.511Z,36.61
2023-05-05T01:57:43.218Z,36.59
2023-05-05T02:00:11.488Z,36.73
2023-05-05T02:02:38.928Z,36.62
2023-05-05T02:05:06.336Z,36.51
2023-05-05T02:07:33.137Z,36.62
2023-05-05T02:10:01.829Z,36.88
2023-05-05T02:12:29.893Z,36.82
2023-05-05T02:14:58.741Z,36.63
2023-05-05T02:17:25.846Z,36.61
2023-05-05T02:19:52.900Z,36.59
2023-05-05T02:22:19.598Z,36.62
2023-05-05T02:24:46.646Z,36.56
2023-05-05T02:27:13.388Z,36.58
2023-05-05T02:29:52.021Z,36.89
2023-05-05T02:32:22.349Z,36.60
2023-05-05T02:34:49.753Z,36.61
2023-05-05T02:37:19.104Z,36.55
2023-05-05T02:39:58.668Z,36.70
2023-05-05T02:42:30.054Z,36.65
2023-05-05T02:44:58.714Z,36.70
2023-05-05T02:47:32.124Z,36.71
2023-05-05T02:49:59.142Z,36.83
2023-05-05T02:52:25.826Z,36.68
2023-05-05T02:54:52.800Z,36.77
2023-05-05T02:57:20.950Z,36.81
2023-05-05T02:59:51.694Z,36.91
2023-05-05T03:02:20.014Z,36.85
2023-05-05T03:04:49.283Z,36.75
2023-05-05T03:07:27.953Z,36.78
2023-05-05T03:09:59.871Z,37.00
2023-05-05T03:12:28.232Z,37.00
2023-05-05T03:14:57.008Z,36.97
2023-05-05T03:17:23.802Z,37.01
2023-05-05T03:19:50.837Z,37.08
2023-05-05T03:22:17.574Z,36.94
2023-05-05T03:24:49.718Z,37.05
2023-05-05T03:27:16.468Z,36.95
2023-05-05T03:29:43.565Z,36.91
2023-05-05T03:32:10.312Z,36.93
2023-05-05T03:34:37.861Z,37.16
2023-05-05T03:37:04.619Z,36.98
2023-05-05T03:39:31.669Z,37.04
2023-05-05T03:41:58.434Z,37.12
2023-05-05T03:44:25.479Z,36.95
2023-05-05T03:46:52.175Z,37.32
2023-05-05T03:49:19.245Z,37.07
2023-05-05T03:51:46.997Z,37.02
2023-05-05T03:54:14.127Z,37.10
2023-05-05T03:56:40.985Z,37.12
2023-05-05T03:59:08.886Z,37.09
2023-05-05T04:01:35.811Z,37.08
2023-05-05T04:04:02.836Z,37.07
2023-05-05T04:06:29.835Z,37.22
2023-05-05T04:08:57.138Z,37.44
2023-05-05T04:11:23.960Z,37.27
2023-05-05T04:13:51.025Z,37.28
2023-05-05T04:16:17.794Z,36.98
2023-05-05T04:18:44.860Z,37.07
2023-05-05T04:21:11.711Z,37.40
2023-05-05T04:23:38.770Z,37.48
2023-05-05T04:26:05.498Z,37.13
2023-05-05T04:28:32.577Z,37.25
2023-05-05T04:31:01.229Z,37.31
2023-05-05T04:33:28.416Z,37.28
2023-05-05T04:35:55.151Z,37.22
2023-05-05T04:38:22.433Z,37.40
2023-05-05T04:40:49.190Z,37.32
2023-05-05T04:43:16.192Z,37.23
2023-05-05T04:45:52.274Z,37.16
2023-05-05T04:48:20.810Z,37.21
2023-05-05T04:50:47.727Z,37.20
2023-05-05T04:53:14.743Z,36.81
2023-05-05T04:55:41.459Z,37.06
2023-05-05T04:58:08.540Z,36.92
2023-05-05T05:00:36.876Z,37.17
2023-05-05T05:03:04.654Z,36.96
2023-05-05T05:05:31.418Z,37.20
2023-05-05T05:07:58.441Z,37.34
2023-05-05T05:10:25.219Z,37.41
2023-05-05T05:12:52.256Z,37.65
2023-05-05T05:15:18.981Z,38.09
2023-05-05T05:17:46.027Z,38.23
2023-05-05T05:20:12.894Z,37.92
2023-05-05T05:22:40.993Z,37.52
2023-05-05T05:25:08.001Z,36.79
2023-05-05T05:27:35.022Z,36.93
2023-05-05T05:30:02.149Z,36.80
2023-05-05T05:32:29.542Z,37.02
2023-05-05T05:34:56.296Z,36.91
2023-05-05T05:37:23.330Z,37.00
2023-05-05T05:39:53.220Z,36.88
2023-05-05T05:42:20.231Z,36.67
2023-05-05T05:44:46.967Z,36.93
2023-05-05T05:47:14.410Z,36.64
2023-05-05T05:49:41.393Z,36.46
2023-05-05T05:52:08.471Z,36.56
2023-05-05T05:54:35.672Z,36.76
2023-05-05T05:57:02.656Z,36.57
2023-05-05T05:59:29.390Z,36.76
2023-05-05T06:01:56.670Z,36.57
2023-05-05T06:04:23.394Z,36.55
2023-05-05T06:06:50.837Z,36.50
2023-05-05T06:09:17.517Z,36.43
2023-05-05T06:11:44.521Z,36.48
2023-05-05T06:14:11.201Z,36.11
2023-05-05T06:16:38.174Z,36.21
2023-05-05T06:19:09.567Z,36.17
2023-05-05T06:21:37.019Z,36.22
2023-05-05T06:24:03.989Z,36.58
2023-05-05T06:26:31.508Z,36.13
2023-05-05T06:28:58.284Z,36.07
2023-05-05T06:31:25.801Z,36.12
2023-05-05T06:33:52.522Z,36.28
2023-05-05T06:36:19.623Z,36.27
2023-05-05T06:38:46.402Z,36.13
2023-05-05T06:41:13.432Z,36.23
2023-05-05T06:43:44.291Z,36.38
2023-05-05T06:46:11.504Z,36.33
2023-05-05T06:48:38.337Z,36.08
2023-05-05T06:51:05.401Z,35.97
2023-05-05T06:53:32.165Z,36.16
2023-05-05T06:55:59.191Z,36.10
2023-05-05T06:58:25.948Z,36.17
2023-05-05T07:00:54.171Z,35.86
2023-05-05T07:03:20.986Z,35.75
2023-05-05T07:05:48.040Z,35.79
2023-05-05T07:08:14.774Z,35.76
2023-05-05T07:10:42.209Z,35.79
2023-05-05T07:13:09.132Z,35.96
2023-05-05T07:15:36.384Z,35.71
2023-05-05T07:18:03.214Z,35.52
2023-05-05T07:20:30.289Z,35.89
2023-05-05T07:22:57.004Z,35.57
2023-05-05T07:25:24.020Z,35.76
2023-05-05T07:27:51.155Z,35.66
2023-05-05T07:30:19.142Z,35.43
2023-05-05T07:32:46.739Z,35.42
2023-05-05T07:35:13.933Z,35.44
2023-05-05T07:37:40.702Z,35.53
2023-05-05T07:40:08.736Z,35.48
2023-05-05T07:42:35.952Z,35.64
2023-05-05T07:45:03.614Z,35.60
2023-05-05T07:47:30.562Z,35.78
2023-05-05T07:49:57.874Z,35.41
2023-05-05T07:52:37.064Z,35.51
2023-05-05T07:55:11.939Z,35.40
2023-05-05T07:57:38.976Z,35.05
2023-05-05T08:00:06.777Z,35.24
2023-05-05T08:02:33.932Z,34.99
2023-05-05T08:05:01.051Z,35.38
2023-05-05T08:07:27.760Z,35.05
2023-05-05T08:09:54.763Z,35.05
2023-05-05T08:12:21.473Z,35.02
2023-05-05T08:14:48.534Z,35.15
2023-05-05T08:17:16.265Z,34.86
2023-05-05T08:19:43.259Z,34.79
2023-05-05T08:22:09.973Z,35.31
2023-05-05T08:24:36.986Z,35.06
2023-05-05T08:27:04.182Z,35.07
2023-05-05T08:29:31.183Z,35.31
2023-05-05T08:31:58.090Z,35.32
2023-05-05T08:34:25.408Z,35.16
2023-05-05T08:36:52.190Z,34.87
2023-05-05T08:39:19.173Z,35.29
2023-05-05T08:41:45.991Z,34.90
2023-05-05T08:44:13.190Z,34.89
2023-05-05T08:46:41.221Z,34.93
2023-05-05T08:49:08.950Z,34.75
2023-05-05T08:51:41.196Z,34.68
2023-05-05T08:54:10.162Z,35.10
2023-05-05T08:56:40.041Z,34.91
2023-05-05T08:59:07.055Z,34.92
2023-05-05T09:01:33.997Z,34.79
2023-05-05T09:04:01.212Z,34.66
2023-05-05T09:06:28.930Z,34.40
2023-05-05T09:08:57.613Z,34.81
2023-05-05T09:11:26.266Z,34.43
2023-05-05T09:13:53.314Z,35.05
2023-05-05T09:16:20.070Z,34.50
2023-05-05T09:18:47.139Z,34.86
2023-05-05T09:21:24.733Z,34.85
2023-05-05T09:24:09.095Z,34.63
2023-05-05T09:26:37.667Z,34.67
2023-05-05T09:29:05.024Z,34.15
2023-05-05T09:31:32.108Z,34.25
2023-05-05T09:34:01.074Z,34.62
2023-05-05T09:36:49.380Z,34.08
2023-05-05T09:39:19.853Z,34.42
2023-05-05T09:41:47.037Z,34.58
2023-05-05T09:44:17.049Z,34.05
2023-05-05T09:46:51.479Z,33.85
2023-05-05T09:49:20.515Z,34.06
2023-05-05T09:51:47.741Z,34.08
2023-05-05T09:54:28.582Z,33.83
2023-05-05T09:56:58.804Z,33.89
2023-05-05T09:59:25.845Z,33.70
2023-05-05T10:01:52.593Z,33.43
2023-05-05T10:04:37.820Z,33.71
2023-05-05T10:07:04.599Z,33.25
2023-05-05T10:09:34.245Z,33.27
2023-05-05T10:12:01.801Z,33.18
2023-05-05T10:14:28.871Z,32.85
2023-05-05T10:16:55.739Z,32.51
2023-05-05T10:19:23.693Z,32.57
2023-05-05T10:21:54.456Z,32.74
2023-05-05T10:24:34.462Z,32.40
2023-05-05T10:27:03.280Z,32.40
2023-05-05T10:29:45.886Z,32.44
2023-05-05T10:32:56.418Z,32.33
2023-05-05T10:35:24.393Z,32.19
2023-05-05T10:37:51.281Z,32.28
2023-05-05T10:40:18.360Z,32.10
2023-05-05T10:42:45.108Z,31.89
2023-05-05T10:45:12.371Z,32.15
2023-05-05T10:47:40.400Z,32.25
2023-05-05T10:50:16.365Z,31.97
2023-05-05T10:52:43.140Z,32.37
2023-05-05T10:55:24.377Z,31.51
2023-05-05T10:57:52.637Z,31.48
2023-05-05T11:00:37.938Z,30.68
2023-05-05T11:03:16.834Z,31.08
2023-05-05T11:06:07.636Z,30.29
2023-05-05T11:08:44.132Z,30.06
2023-05-05T11:11:11.785Z,30.21
2023-05-05T11:13:39.586Z,29.99
2023-05-05T11:16:45.874Z,29.43
2023-05-05T11:19:48.662Z,29.59
2023-05-05T11:22:16.678Z,29.72
2023-05-05T11:24:43.441Z,29.52
2023-05-05T11:27:11.529Z,29.79
2023-05-05T11:30:10.049Z,28.77
2023-05-05T11:32:37.343Z,29.27
2023-05-05T11:35:06.178Z,29.24
2023-05-05T11:37:33.330Z,29.43
2023-05-05T11:40:02.872Z,29.85
2023-05-05T11:42:30.360Z,29.20
2023-05-05T11:44:57.189Z,29.55
2023-05-05T11:47:25.087Z,29.60
2023-05-05T11:49:51.892Z,29.75
2023-05-05T11:52:18.967Z,29.46
2023-05-05T11:54:50.182Z,28.57
2023-05-05T11:57:21.071Z,28.84
2023-05-05T11:59:54.663Z,29.02
2023-05-05T12:02:22.075Z,28.91
2023-05-05T12:04:49.329Z,28.83
2023-05-05T12:07:17.346Z,29.28
2023-05-05T12:09:45.653Z,29.17
2023-05-05T12:12:12.913Z,29.02
2023-05-05T12:14:52.655Z,29.67
2023-05-05T12:17:20.643Z,29.13
2023-05-05T12:19:48.121Z,29.47
2023-05-05T12:22:19.127Z,29.79
2023-05-05T12:24:45.973Z,29.71
2023-05-05T12:27:13.028Z,29.44
2023-05-05T12:29:39.763Z,29.54
2023-05-05T12:32:06.784Z,29.18
2023-05-05T12:34:33.694Z,29.47
2023-05-05T12:37:00.997Z,29.19
2023-05-05T12:39:36.980Z,29.55
2023-05-05T12:42:04.797Z,29.50
2023-05-05T12:44:38.416Z,29.38
2023-05-05T12:47:05.679Z,29.57
2023-05-05T12:49:35.339Z,29.70
2023-05-05T12:52:02.364Z,29.36
2023-05-05T12:54:29.764Z,29.40
2023-05-05T12:56:59.743Z,29.65
2023-05-05T12:59:27.539Z,29.86
2023-05-05T13:01:56.220Z,29.71
2023-05-05T13:04:24.186Z,29.77
2023-05-05T13:07:11.676Z,29.63
2023-05-05T13:09:38.515Z,29.63
2023-05-05T13:12:07.197Z,29.42
2023-05-05T13:14:34.522Z,29.50
2023-05-05T13:17:01.684Z,29.56
2023-05-05T13:19:28.658Z,30.08
2023-05-05T13:21:56.412Z,29.71
2023-05-05T13:24:31.574Z,29.07
2023-05-05T13:27:03.125Z,29.45
2023-05-05T13:29:31.527Z,29.37
2023-05-05T13:31:58.974Z,29.48
2023-05-05T13:34:25.940Z,29.23
2023-05-05T13:36:53.051Z,29.68
2023-05-05T13:39:19.970Z,29.85
2023-05-05T13:41:47.055Z,29.08
2023-05-05T13:44:14.409Z,29.79
2023-05-05T13:46:42.499Z,29.47
2023-05-05T13:49:09.371Z,29.41
2023-05-05T13:51:37.027Z,29.45
2023-05-05T13:54:04.052Z,29.32
2023-05-05T13:56:31.166Z,29.47
2023-05-05T13:58:58.372Z,29.59
2023-05-05T14:01:25.904Z,29.37
2023-05-05T14:03:53.076Z,29.38
2023-05-05T14:06:21.067Z,29.72
2023-05-05T14:08:47.963Z,29.75
2023-05-05T14:11:17.143Z,29.75
2023-05-05T14:13:44.780Z,30.08
2023-05-05T14:16:12.131Z,30.04
2023-05-05T14:18:38.861Z,29.97
2023-05-05T14:21:05.919Z,30.44
2023-05-05T14:23:32.646Z,28.76
2023-05-05T14:25:59.682Z,28.50
2023-05-05T14:28:26.496Z,28.96
2023-05-05T14:30:53.541Z,29.17
2023-05-05T14:33:20.319Z,29.20
2023-05-05T14:35:47.438Z,29.36
2023-05-05T14:38:14.204Z,29.54
2023-05-05T14:40:41.622Z,29.62
2023-05-05T14:43:08.324Z,29.63
2023-05-05T14:45:35.501Z,29.75
2023-05-05T14:48:02.762Z,30.16
2023-05-05T14:50:30.051Z,29.19
2023-05-05T14:52:56.796Z,28.74
2023-05-05T14:55:25.054Z,28.66
2023-05-05T14:57:52.061Z,28.52
2023-05-05T15:00:19.318Z,28.57
2023-05-05T15:02:48.057Z,28.60
2023-05-05T15:05:15.570Z,28.84
2023-05-05T15:07:42.375Z,29.00
2023-05-05T15:10:09.910Z,29.08
2023-05-05T15:12:36.693Z,28.70
2023-05-05T15:15:03.956Z,29.17
2023-05-05T15:17:31.842Z,29.27
2023-05-05T15:19:58.939Z,29.33
2023-05-05T15:22:26.077Z,30.37
2023-05-05T15:24:53.261Z,30.14
2023-05-05T15:27:20.149Z,30.26
2023-05-05T15:29:47.216Z,30.04
2023-05-05T15:32:14.268Z,30.57
2023-05-05T15:34:42.128Z,28.50
2023-05-05T15:37:08.839Z,28.70
2023-05-05T15:39:35.910Z,29.03
2023-05-05T15:42:05.668Z,29.54
2023-05-05T15:44:32.731Z,29.59
2023-05-05T15:46:59.524Z,29.44
2023-05-05T15:49:26.572Z,29.81
2023-05-05T15:51:53.280Z,29.38
2023-05-05T15:54:20.384Z,30.32
2023-05-05T15:56:47.792Z,30.37
2023-05-05T15:59:14.821Z,30.09
2023-05-05T16:01:41.553Z,29.73
2023-05-05T16:04:08.685Z,29.42
2023-05-05T16:06:35.864Z,30.11
2023-05-05T16:09:03.861Z,30.32
2023-05-05T16:11:30.890Z,29.44
2023-05-05T16:13:57.883Z,29.57
2023-05-05T16:16:24.659Z,29.46
2023-05-05T16:18:51.968Z,29.36
2023-05-05T16:21:18.747Z,29.13
2023-05-05T16:23:46.557Z,29.77
2023-05-05T16:26:13.356Z,30.15
2023-05-05T16:28:40.443Z,30.01
2023-05-05T16:31:09.535Z,29.83
2023-05-05T16:33:40.761Z,29.91
2023-05-05T16:36:12.343Z,29.93
2023-05-05T16:38:40.156Z,30.11
2023-05-05T16:41:07.247Z,29.60
2023-05-05T16:43:34.874Z,29.89
2023-05-05T16:46:01.875Z,30.30
2023-05-05T16:48:29.188Z,30.29
2023-05-05T16:50:57.687Z,29.58
2023-05-05T16:53:25.101Z,29.89
2023-05-05T16:55:52.655Z,30.27
2023-05-05T16:58:23.179Z,30.42
2023-05-05T17:00:50.920Z,29.95
2023-05-05T17:03:18.697Z,29.48
2023-05-05T17:05:50.184Z,29.90
2023-05-05T17:08:17.635Z,29.22
2023-05-05T17:10:44.933Z,28.74
2023-05-05T17:13:12.665Z,28.90
2023-05-05T17:15:39.383Z,28.97
2023-05-05T17:18:06.793Z,28.85
2023-05-05T17:20:33.906Z,28.82
2023-05-05T17:23:02.201Z,28.32
2023-05-05T17:25:28.960Z,28.25
2023-05-05T17:27:56.248Z,28.34
2023-05-05T17:30:23.159Z,28.37
2023-05-05T17:32:50.446Z,28.69
2023-05-05T17:35:17.321Z,28.25
2023-05-05T17:37:44.511Z,28.74
2023-05-05T17:40:11.444Z,28.37
2023-05-05T17:42:40.597Z,28.47
2023-05-05T17:45:08.579Z,28.77
2023-05-05T17:47:36.615Z,28.91
2023-05-05T17:50:03.811Z,29.17
2023-05-05T17:52:30.987Z,28.63
2023-05-05T17:54:57.866Z,28.88
2023-05-05T17:57:24.955Z,28.84
2023-05-05T17:59:53.586Z,28.93
2023-05-05T18:02:21.067Z,29.02
2023-05-05T18:04:47.920Z,29.33
2023-05-05T18:07:16.759Z,28.73
2023-05-05T18:09:43.732Z,28.78
2023-05-05T18:12:10.885Z,28.96
2023-05-05T18:14:37.897Z,29.08
2023-05-05T18:17:05.143Z,28.65
2023-05-05T18:19:32.077Z,29.02
2023-05-05T18:21:59.256Z,28.95
2023-05-05T18:24:26.197Z,29.00
2023-05-05T18:26:53.378Z,29.07
2023-05-05T18:29:21.827Z,29.11
2023-05-05T18:31:52.014Z,29.15
2023-05-05T18:34:19.366Z,29.26
2023-05-05T18:36:47.074Z,29.20
2023-05-05T18:39:14.625Z,28.95
2023-05-05T18:41:41.860Z,29.15
2023-05-05T18:44:08.729Z,29.31
2023-05-05T18:46:35.951Z,29.57
2023-05-05T18:49:03.575Z,29.28
2023-05-05T18:51:30.856Z,29.64
2023-05-05T18:53:58.932Z,29.40
2023-05-05T18:56:27.468Z,30.07
2023-05-05T18:58:54.422Z,30.20
2023-05-05T19:01:21.680Z,30.50
2023-05-05T19:03:48.851Z,30.11
2023-05-05T19:06:16.409Z,30.19
2023-05-05T19:08:44.039Z,30.40
2023-05-05T19:11:12.597Z,30.07
2023-05-05T19:13:44.028Z,30.71
2023-05-05T19:16:11.731Z,30.42
2023-05-05T19:18:39.158Z,30.33
2023-05-05T19:21:06.696Z,30.03
2023-05-05T19:23:34.665Z,30.35
2023-05-05T19:26:04.343Z,30.82
2023-05-05T19:28:32.117Z,30.50
2023-05-05T19:31:01.554Z,30.71
2023-05-05T19:33:28.400Z,30.82
2023-05-05T19:35:55.743Z,30.98
2023-05-05T19:38:22.673Z,30.78
2023-05-05T19:40:50.530Z,30.91
2023-05-05T19:43:18.515Z,31.05
2023-05-05T19:45:45.922Z,30.64
2023-05-05T19:48:12.816Z,30.60
2023-05-05T19:50:40.666Z,30.36
2023-05-05T19:53:08.652Z,30.92
2023-05-05T19:55:35.858Z,30.87
2023-05-05T19:58:03.275Z,30.86
2023-05-05T20:00:31.074Z,30.95
2023-05-05T20:02:58.072Z,31.26
2023-05-05T20:05:26.347Z,31.00
2023-05-05T20:07:53.275Z,30.93
2023-05-05T20:10:22.000Z,31.13
2023-05-05T20:12:50.220Z,31.06
2023-05-05T20:15:20.724Z,30.92
2023-05-05T20:17:49.092Z,30.94
2023-05-05T20:20:18.698Z,31.01
2023-05-05T20:22:46.198Z,31.16
2023-05-05T20:25:17.957Z,30.99
2023-05-05T20:27:45.885Z,31.41
2023-05-05T20:30:13.406Z,30.98
2023-05-05T20:32:40.805Z,31.60
2023-05-05T20:35:08.769Z,31.36
2023-05-05T20:37:35.819Z,31.50
2023-05-05T20:40:04.448Z,31.01
2023-05-05T20:42:31.337Z,31.43
2023-05-05T20:45:00.553Z,31.36
2023-05-05T20:47:27.407Z,31.64
2023-05-05T20:49:56.239Z,31.40
2023-05-05T20:52:23.178Z,31.67
2023-05-05T20:54:52.449Z,31.21
2023-05-05T20:57:19.346Z,31.20
2023-05-05T20:59:46.558Z,31.36
2023-05-05T21:02:13.479Z,31.71
2023-05-05T21:04:40.817Z,31.67
2023-05-05T21:07:07.716Z,31.08
2023-05-05T21:09:35.454Z,31.17
2023-05-05T21:12:02.569Z,31.18
2023-05-05T21:14:30.544Z,31.23
2023-05-05T21:16:59.104Z,31.52
2023-05-05T21:19:26.482Z,31.45
2023-05-05T21:21:53.760Z,31.16
2023-05-05T21:24:21.155Z,31.01
2023-05-05T21:26:48.005Z,31.60
2023-05-05T21:29:15.131Z,31.41
2023-05-05T21:31:42.156Z,31.18
2023-05-05T21:34:09.254Z,31.50
2023-05-05T21:36:36.842Z,31.38
2023-05-05T21:39:04.020Z,31.58
2023-05-05T21:41:30.802Z,31.31
2023-05-05T21:43:58.127Z,31.90
2023-05-05T21:46:24.994Z,31.25
2023-05-05T21:48:52.114Z,31.28
2023-05-05T21:51:20.320Z,31.77
2023-05-05T21:53:47.427Z,31.57
2023-05-05T21:56:14.280Z,32.04
2023-05-05T21:58:41.326Z,31.92
2023-05-05T22:01:08.192Z,31.53
2023-05-05T22:03:35.895Z,32.09
2023-05-05T22:06:02.875Z,32.14
2023-05-05T22:08:30.034Z,32.14
2023-05-05T22:10:56.714Z,31.62
2023-05-05T22:13:23.921Z,31.77
2023-05-05T22:15:50.734Z,31.87
2023-05-05T22:18:17.824Z,31.93
2023-05-05T22:20:44.571Z,32.03
2023-05-05T22:23:11.802Z,32.16
2023-05-05T22:25:38.581Z,31.73
2023-05-05T22:28:05.676Z,32.02
2023-05-05T22:30:32.485Z,32.17
2023-05-05T22:32:59.604Z,31.96
2023-05-05T22:35:26.322Z,31.99
2023-05-05T22:37:53.372Z,32.14
2023-05-05T22:40:20.072Z,32.04
2023-05-05T22:42:47.122Z,32.22
2023-05-05T22:45:13.852Z,32.40
2023-05-05T22:47:40.995Z,32.37
2023-05-05T22:50:08.374Z,32.06
2023-05-05T22:52:35.511Z,32.31
2023-05-05T22:55:02.517Z,32.11
2023-05-05T22:57:29.566Z,32.09
2023-05-05T22:59:56.352Z,32.47
2023-05-05T23:02:23.903Z,32.40
2023-05-05T23:04:51.173Z,32.53
2023-05-05T23:07:18.559Z,32.20
2023-05-05T23:09:46.532Z,32.44
2023-05-05T23:12:13.631Z,32.23
2023-05-05T23:14:40.631Z,32.31
2023-05-05T23:17:07.664Z,32.21
2023-05-05T23:19:34.713Z,32.08
2023-05-05T23:22:02.059Z,32.28
2023-05-05T23:24:28.887Z,32.59
2023-05-05T23:26:58.842Z,32.51
2023-05-05T23:29:25.703Z,32.64
2023-05-05T23:31:52.740Z,32.42
2023-05-05T23:34:19.481Z,32.79
2023-05-05T23:36:46.758Z,32.58
2023-05-05T23:39:13.565Z,32.43
2023-05-05T23:41:40.573Z,32.45
2023-05-05T23:44:07.255Z,32.63
2023-05-05T23:46:34.392Z,32.94
2023-05-05T23:49:01.246Z,32.43
2023-05-05T23:51:28.294Z,32.67
2023-05-05T23:53:56.433Z,33.00
2023-05-05T23:56:24.024Z,32.80
2023-05-05T23:58:50.928Z,33.19
